»·PEaware :: N7727P KCRQ-KPSP

N7727P :: KCRQ-KPSP

FLIGHT INFORMATION

Flight Status: Arrived
Operator: Privately registered:
United States
More flights under this callsign
Pilot: Kyle A. (14988)
Aircraft: PIPER PA-24 COMMANCHE
(PA24)
More flights by this aircraft type
Origin: KCRQ McClellan-Palomar
United States
Destination: KPSP Palm Springs Intl
United States
More flights between these airports :: More routes between these airports
Route: +JLI V208 TRM PSP
File this flight plan on PilotEdge
Remarks:
Altitude:
(Current/Filed)
9,000ft
Speed:
(Current/Filed)
155kts
Departed: 01-Feb-18 01:27 PM
Arrived: 01-Feb-18 02:11 PM
Distance/Time
Traveled:
57nm/0:43
Distance/Time
To Go:
Arrived

Flight Plot

Page will automatically refresh every two minutes.

Flight plan parsing failed; only flown route is shown


Map Options




Map Legend


Flown Route
Filed Route
Departure Airport
Arrival Airport
Navaid (VOR, NDB)
Fix

Horizontal Profiles

Position Reports

Time Latitude Longitude Heading Altitude Ground
Speed
01-Feb-18 13:24 33.127870 -117.274852 169 334ft 0kts
01-Feb-18 13:25 33.127868 -117.274851 169 334ft 0kts
01-Feb-18 13:26 33.127866 -117.274851 169 334ft 0kts
01-Feb-18 13:27 33.127863 -117.274850 169 334ft 0kts
01-Feb-18 13:28 33.127861 -117.274850 169 334ft 0kts
01-Feb-18 13:29 33.127859 -117.274849 169 334ft 0kts
01-Feb-18 13:30 33.127957 -117.273742 78 334ft 7kts
01-Feb-18 13:31 33.128621 -117.272729 4 334ft 0kts
01-Feb-18 13:32 33.128623 -117.272729 4 334ft 0kts
01-Feb-18 13:33 33.129110 -117.274879 258 334ft 56kts
01-Feb-18 13:34 33.125504 -117.303091 261 1437ft 91kts
01-Feb-18 13:35 33.121726 -117.335329 260 2483ft 100kts
01-Feb-18 13:36 33.117544 -117.372542 260 3016ft 135kts
01-Feb-18 13:37 33.105149 -117.413458 193 3547ft 131kts
01-Feb-18 13:38 33.090128 -117.383258 86 4423ft 123kts
01-Feb-18 13:39 33.092684 -117.341703 85 5299ft 125kts
01-Feb-18 13:40 33.095653 -117.299640 86 6222ft 128kts
01-Feb-18 13:41 33.098419 -117.256729 86 7307ft 131kts
01-Feb-18 13:42 33.101279 -117.212775 86 8155ft 134kts
01-Feb-18 13:43 33.104190 -117.167925 86 8802ft 136kts
01-Feb-18 13:44 33.107260 -117.120247 86 9015ft 155kts
01-Feb-18 13:45 33.110625 -117.067978 86 9016ft 159kts
01-Feb-18 13:46 33.114010 -117.014921 86 9010ft 160kts
01-Feb-18 13:47 33.116794 -116.970831 86 9015ft 160kts
01-Feb-18 13:48 33.120804 -116.906894 86 8993ft 171kts
01-Feb-18 13:49 33.124209 -116.851748 86 8994ft 166kts
01-Feb-18 13:50 33.127704 -116.796112 86 8994ft 171kts
01-Feb-18 13:51 33.130585 -116.749111 86 9006ft 172kts
01-Feb-18 13:52 33.134478 -116.685130 86 8997ft 162kts
01-Feb-18 13:53 33.137822 -116.630418 86 8991ft 167kts
01-Feb-18 13:54 33.144364 -116.585309 47 8982ft 174kts
01-Feb-18 13:55 33.181133 -116.550924 37 8991ft 164kts
01-Feb-18 13:56 33.218597 -116.517935 36 9005ft 173kts
01-Feb-18 13:57 33.257258 -116.484757 36 9016ft 173kts
01-Feb-18 13:58 33.295646 -116.450955 36 9019ft 173kts
01-Feb-18 13:59 33.332887 -116.418832 36 9009ft 166kts
01-Feb-18 14:00 33.369813 -116.386443 36 9003ft 162kts
01-Feb-18 14:01 33.407132 -116.353848 36 9012ft 172kts
01-Feb-18 14:02 33.445320 -116.320534 36 9007ft 169kts
01-Feb-18 14:03 33.482387 -116.287917 36 8993ft 162kts
01-Feb-18 14:04 33.518982 -116.256069 36 8993ft 162kts
01-Feb-18 14:05 33.555347 -116.223865 36 8992ft 164kts
01-Feb-18 14:06 33.592926 -116.191208 36 9004ft 172kts
01-Feb-18 14:07 33.633472 -116.163131 350 8697ft 178kts
01-Feb-18 14:08 33.658460 -116.210053 290 7536ft 171kts
01-Feb-18 14:09 33.675015 -116.262924 291 6374ft 166kts
01-Feb-18 14:10 33.689051 -116.308222 297 5564ft 166kts
01-Feb-18 14:11 33.716404 -116.352324 305 4847ft 160kts
01-Feb-18 14:12 33.741400 -116.394964 303 3728ft 150kts
01-Feb-18 14:13 33.763427 -116.434930 302 2310ft 136kts
01-Feb-18 14:14 33.783804 -116.466070 316 1555ft 98kts
01-Feb-18 14:15 33.803207 -116.484302 323 1017ft 80kts
01-Feb-18 14:16 33.819453 -116.498557 323 557ft 69kts
01-Feb-18 14:17 33.829454 -116.507175 352 480ft 19kts
01-Feb-18 14:18 33.830507 -116.507219 358 480ft 0kts
01-Feb-18 14:19 33.830509 -116.507219 358 480ft 0kts
01-Feb-18 14:20 33.829632 -116.505954 143 480ft 8kts
01-Feb-18 14:21 33.826358 -116.503069 144 480ft 14kts
01-Feb-18 14:22 33.823189 -116.500269 143 480ft 18kts
01-Feb-18 14:23 33.819646 -116.496442 58 480ft 12kts
01-Feb-18 14:24 33.822350 -116.497158 320 480ft 12kts
01-Feb-18 14:25 33.822914 -116.497898 45 480ft 0kts
01-Feb-18 14:26 33.822917 -116.497895 45 480ft 0kts
01-Feb-18 14:27 33.822923 -116.497887 45 480ft 0kts
01-Feb-18 14:28 33.822925 -116.497885 45 480ft 0kts
01-Feb-18 14:29 33.822927 -116.497883 45 480ft 0kts
01-Feb-18 14:30 33.822929 -116.497880 45 480ft 0kts
01-Feb-18 14:31 33.822930 -116.497878 45 480ft 0kts

Navigation Log

Ident Type
Flight plan parsing failed, navigation log unavailable